CGR836 SCIE-SCCF
Flight info
| Callsign | CGR836 |
|---|---|
| Flight time | 2h 4m |
| Altitude | 34000 |
| Route | LODOS4M LODOS UQ808 KADAK DCT AMB DCT DILOK UQ814 MARGU DCT |
| Aircraft | B739/M-SDE2E3FGHIRWXY/LB1 |
Departure
| Time | 2026-04-28 13:03 |
|---|---|
| Airport | Carriel Sur International Airport (SCIE) |
Arrival
| Time | 2026-04-28 15:08 |
|---|---|
| Airport | El Loa Airport (SCCF) |
| Time | Latitude | Longitude | Altitude | Speed | Heading |
|---|---|---|---|---|---|
| 2026-04-28 12:37 | -36.77602 | -73.05942 | 54 ft | 0 kts | 191° |
| 2026-04-28 12:50 | -36.77595 | -73.05940 | 52 ft | 2 kts | 189° |
| 2026-04-28 12:50 | -36.77579 | -73.05937 | 54 ft | 2 kts | 190° |
| 2026-04-28 12:50 | -36.77563 | -73.05933 | 54 ft | 2 kts | 198° |
| 2026-04-28 12:51 | -36.77552 | -73.05919 | 57 ft | 2 kts | 261° |
| 2026-04-28 12:51 | -36.77552 | -73.05899 | 54 ft | 2 kts | 278° |
| 2026-04-28 12:51 | -36.77555 | -73.05879 | 56 ft | 2 kts | 287° |
| 2026-04-28 12:51 | -36.77556 | -73.05872 | 51 ft | 0 kts | 290° |
| 2026-04-28 12:55 | -36.77556 | -73.05874 | 52 ft | 1 kts | 290° |
| 2026-04-28 12:55 | -36.77552 | -73.05892 | 54 ft | 3 kts | 283° |
| 2026-04-28 12:55 | -36.77546 | -73.05928 | 56 ft | 5 kts | 279° |
| 2026-04-28 12:56 | -36.77542 | -73.05984 | 59 ft | 7 kts | 274° |
| 2026-04-28 12:56 | -36.77538 | -73.06051 | 59 ft | 9 kts | 279° |
| 2026-04-28 12:56 | -36.77518 | -73.06127 | 57 ft | 10 kts | 291° |
| 2026-04-28 12:56 | -36.77519 | -73.06211 | 57 ft | 10 kts | 233° |
| 2026-04-28 12:57 | -36.77582 | -73.06261 | 60 ft | 11 kts | 206° |
| 2026-04-28 12:57 | -36.77657 | -73.06303 | 55 ft | 12 kts | 202° |
| 2026-04-28 12:57 | -36.77740 | -73.06349 | 57 ft | 14 kts | 206° |
| 2026-04-28 12:57 | -36.77826 | -73.06402 | 60 ft | 14 kts | 206° |
| 2026-04-28 12:58 | -36.77910 | -73.06452 | 56 ft | 13 kts | 205° |
| 2026-04-28 12:58 | -36.77991 | -73.06500 | 52 ft | 13 kts | 205° |
| 2026-04-28 12:58 | -36.78071 | -73.06546 | 60 ft | 12 kts | 207° |
| 2026-04-28 12:58 | -36.78148 | -73.06591 | 57 ft | 12 kts | 203° |
| 2026-04-28 12:59 | -36.78222 | -73.06638 | 60 ft | 12 kts | 217° |
| 2026-04-28 12:59 | -36.78247 | -73.06703 | 59 ft | 7 kts | 279° |
| 2026-04-28 12:59 | -36.78243 | -73.06718 | 58 ft | 0 kts | 289° |
| 2026-04-28 13:01 | -36.78241 | -73.06723 | 59 ft | 3 kts | 289° |
| 2026-04-28 13:01 | -36.78228 | -73.06768 | 56 ft | 6 kts | 291° |
| 2026-04-28 13:01 | -36.78211 | -73.06818 | 65 ft | 6 kts | 294° |
| 2026-04-28 13:02 | -36.78190 | -73.06859 | 67 ft | 5 kts | 324° |
| 2026-04-28 13:02 | -36.78185 | -73.06858 | 64 ft | 1 kts | 11° |
| 2026-04-28 13:02 | -36.78174 | -73.06852 | 67 ft | 0 kts | 21° |
| 2026-04-28 13:02 | -36.78170 | -73.06850 | 67 ft | 3 kts | 21° |
| 2026-04-28 13:03 | -36.78080 | -73.06801 | 66 ft | 43 kts | 25° |
| 2026-04-28 13:03 | -36.77572 | -73.06503 | 60 ft | 116 kts | 25° |
| 2026-04-28 13:03 | -36.76668 | -73.05978 | 97 ft | 170 kts | 25° |
| 2026-04-28 13:03 | -36.75554 | -73.05369 | 776 ft | 171 kts | 22° |
| 2026-04-28 13:04 | -36.74443 | -73.04751 | 1483 ft | 186 kts | 24° |
| 2026-04-28 13:04 | -36.73185 | -73.03999 | 1727 ft | 211 kts | 24° |
| 2026-04-28 13:04 | -36.71801 | -73.03176 | 1935 ft | 227 kts | 24° |
| 2026-04-28 13:04 | -36.70344 | -73.02316 | 2301 ft | 238 kts | 25° |
| 2026-04-28 13:05 | -36.69017 | -73.00953 | 2526 ft | 259 kts | 56° |
| 2026-04-28 13:05 | -36.68173 | -72.98941 | 3119 ft | 263 kts | 54° |
| 2026-04-28 13:05 | -36.66962 | -72.97248 | 3865 ft | 262 kts | 38° |
| 2026-04-28 13:05 | -36.65452 | -72.95958 | 4577 ft | 263 kts | 28° |
| 2026-04-28 13:06 | -36.63859 | -72.94831 | 5276 ft | 264 kts | 27° |
| 2026-04-28 13:06 | -36.62267 | -72.93733 | 5973 ft | 266 kts | 27° |
| 2026-04-28 13:06 | -36.60644 | -72.92602 | 6641 ft | 268 kts | 27° |
| 2026-04-28 13:06 | -36.59009 | -72.91446 | 7222 ft | 273 kts | 28° |
| 2026-04-28 13:07 | -36.57334 | -72.90250 | 7784 ft | 280 kts | 28° |
| 2026-04-28 13:07 | -36.55632 | -72.89025 | 8362 ft | 285 kts | 28° |
| 2026-04-28 13:07 | -36.53901 | -72.87775 | 8933 ft | 290 kts | 28° |
| 2026-04-28 13:07 | -36.52145 | -72.86502 | 9512 ft | 295 kts | 28° |
| 2026-04-28 13:08 | -36.50349 | -72.85198 | 10085 ft | 301 kts | 28° |
| 2026-04-28 13:08 | -36.48496 | -72.83856 | 10334 ft | 318 kts | 28° |
| 2026-04-28 13:08 | -36.46545 | -72.82443 | 10480 ft | 337 kts | 28° |
| 2026-04-28 13:08 | -36.44466 | -72.80937 | 10628 ft | 354 kts | 28° |
| 2026-04-28 13:09 | -36.42304 | -72.79370 | 10994 ft | 364 kts | 28° |
| 2026-04-28 13:09 | -36.40110 | -72.77777 | 11526 ft | 367 kts | 28° |
| 2026-04-28 13:09 | -36.37892 | -72.76168 | 12090 ft | 371 kts | 28° |
| 2026-04-28 13:09 | -36.35644 | -72.74537 | 12609 ft | 376 kts | 28° |
| 2026-04-28 13:10 | -36.33372 | -72.72892 | 13126 ft | 381 kts | 28° |
| 2026-04-28 13:10 | -36.31072 | -72.71226 | 13678 ft | 385 kts | 28° |
| 2026-04-28 13:10 | -36.28772 | -72.69562 | 14201 ft | 389 kts | 28° |
| 2026-04-28 13:10 | -36.26391 | -72.67840 | 14713 ft | 392 kts | 28° |
| 2026-04-28 13:11 | -36.24054 | -72.66151 | 15249 ft | 395 kts | 28° |
| 2026-04-28 13:11 | -36.21670 | -72.64430 | 15796 ft | 398 kts | 28° |
| 2026-04-28 13:11 | -36.19259 | -72.62691 | 16328 ft | 402 kts | 27° |
| 2026-04-28 13:11 | -36.16832 | -72.60942 | 16848 ft | 405 kts | 27° |
| 2026-04-28 13:12 | -36.14388 | -72.59180 | 17361 ft | 409 kts | 27° |
| 2026-04-28 13:12 | -36.11923 | -72.57406 | 17857 ft | 412 kts | 27° |
| 2026-04-28 13:12 | -36.09422 | -72.55608 | 18364 ft | 415 kts | 27° |
| 2026-04-28 13:12 | -36.06944 | -72.53827 | 18795 ft | 419 kts | 27° |
| 2026-04-28 13:13 | -36.04416 | -72.52010 | 19215 ft | 422 kts | 27° |
| 2026-04-28 13:13 | -36.01860 | -72.50175 | 19647 ft | 425 kts | 27° |
| 2026-04-28 13:13 | -35.99290 | -72.48331 | 20095 ft | 428 kts | 27° |
| 2026-04-28 13:13 | -35.96706 | -72.46478 | 20532 ft | 432 kts | 28° |
| 2026-04-28 13:14 | -35.94091 | -72.44605 | 20976 ft | 435 kts | 28° |
| 2026-04-28 13:14 | -35.91463 | -72.42726 | 21372 ft | 438 kts | 28° |
| 2026-04-28 13:14 | -35.88814 | -72.40833 | 21762 ft | 442 kts | 28° |
| 2026-04-28 13:14 | -35.86151 | -72.38932 | 22180 ft | 444 kts | 28° |
| 2026-04-28 13:15 | -35.83463 | -72.37015 | 22612 ft | 447 kts | 28° |
| 2026-04-28 13:15 | -35.80760 | -72.35089 | 23034 ft | 450 kts | 28° |
| 2026-04-28 13:15 | -35.78037 | -72.33149 | 23428 ft | 454 kts | 28° |
| 2026-04-28 13:15 | -35.75293 | -72.31196 | 23797 ft | 457 kts | 28° |
| 2026-04-28 13:16 | -35.72531 | -72.29230 | 24116 ft | 461 kts | 28° |
| 2026-04-28 13:16 | -35.69778 | -72.27273 | 24452 ft | 464 kts | 28° |
| 2026-04-28 13:16 | -35.66974 | -72.25280 | 24786 ft | 467 kts | 28° |
| 2026-04-28 13:16 | -35.64147 | -72.23274 | 25114 ft | 470 kts | 29° |
| 2026-04-28 13:17 | -35.61306 | -72.21258 | 25427 ft | 473 kts | 29° |
| 2026-04-28 13:17 | -35.58448 | -72.19233 | 25761 ft | 476 kts | 29° |
| 2026-04-28 13:17 | -35.55565 | -72.17191 | 26071 ft | 479 kts | 29° |
| 2026-04-28 13:17 | -35.52665 | -72.15139 | 26366 ft | 482 kts | 30° |
| 2026-04-28 13:18 | -35.49747 | -72.13077 | 26689 ft | 485 kts | 30° |
| 2026-04-28 13:18 | -35.46816 | -72.11006 | 27003 ft | 487 kts | 30° |
| 2026-04-28 13:18 | -35.43865 | -72.08924 | 27277 ft | 490 kts | 30° |
| 2026-04-28 13:18 | -35.40931 | -72.06855 | 27553 ft | 493 kts | 30° |
| 2026-04-28 13:19 | -35.37944 | -72.04750 | 27841 ft | 496 kts | 30° |
| 2026-04-28 13:19 | -35.34946 | -72.02639 | 28145 ft | 499 kts | 30° |
| 2026-04-28 13:19 | -35.31925 | -72.00515 | 28426 ft | 501 kts | 30° |
| 2026-04-28 13:19 | -35.28883 | -71.98379 | 28710 ft | 504 kts | 30° |
| 2026-04-28 13:20 | -35.25830 | -71.96237 | 28978 ft | 507 kts | 30° |
| 2026-04-28 13:20 | -35.22764 | -71.94088 | 29248 ft | 509 kts | 31° |
| 2026-04-28 13:20 | -35.19679 | -71.91927 | 29511 ft | 512 kts | 31° |
| 2026-04-28 13:20 | -35.16607 | -71.89777 | 29775 ft | 515 kts | 31° |
| 2026-04-28 13:21 | -35.13488 | -71.87595 | 30025 ft | 517 kts | 31° |
| 2026-04-28 13:21 | -35.10359 | -71.85408 | 30329 ft | 518 kts | 31° |
| 2026-04-28 13:21 | -35.07228 | -71.83223 | 30642 ft | 518 kts | 31° |
| 2026-04-28 13:21 | -35.04097 | -71.81039 | 30966 ft | 517 kts | 31° |
| 2026-04-28 13:22 | -35.01010 | -71.78888 | 31251 ft | 517 kts | 32° |
| 2026-04-28 13:22 | -34.97846 | -71.76685 | 31534 ft | 517 kts | 32° |
| 2026-04-28 13:22 | -34.94753 | -71.74532 | 31818 ft | 517 kts | 32° |
| 2026-04-28 13:22 | -34.91627 | -71.72359 | 32137 ft | 517 kts | 32° |
| 2026-04-28 13:23 | -34.88509 | -71.70193 | 32443 ft | 516 kts | 33° |
| 2026-04-28 13:23 | -34.85381 | -71.68023 | 32731 ft | 516 kts | 33° |
| 2026-04-28 13:23 | -34.82245 | -71.65890 | 33028 ft | 516 kts | 29° |
| 2026-04-28 13:23 | -34.78919 | -71.64223 | 33313 ft | 519 kts | 19° |
| 2026-04-28 13:24 | -34.75421 | -71.63107 | 33608 ft | 520 kts | 13° |
| 2026-04-28 13:24 | -34.71850 | -71.62319 | 33838 ft | 522 kts | 10° |
| 2026-04-28 13:24 | -34.68263 | -71.61641 | 34043 ft | 523 kts | 10° |
| 2026-04-28 13:24 | -34.64717 | -71.60945 | 34283 ft | 522 kts | 11° |
| 2026-04-28 13:25 | -34.61144 | -71.60166 | 34474 ft | 522 kts | 12° |
| 2026-04-28 13:25 | -34.57572 | -71.59335 | 34651 ft | 522 kts | 13° |
| 2026-04-28 13:25 | -34.54021 | -71.58405 | 34816 ft | 523 kts | 15° |
| 2026-04-28 13:25 | -34.50475 | -71.57406 | 35007 ft | 523 kts | 15° |
| 2026-04-28 13:26 | -34.46930 | -71.56382 | 35211 ft | 522 kts | 15° |
| 2026-04-28 13:26 | -34.43380 | -71.55358 | 35400 ft | 522 kts | 15° |
| 2026-04-28 13:26 | -34.39841 | -71.54351 | 35573 ft | 522 kts | 15° |
| 2026-04-28 13:26 | -34.36303 | -71.53357 | 35742 ft | 523 kts | 15° |
| 2026-04-28 13:27 | -34.32798 | -71.52382 | 35884 ft | 524 kts | 15° |
| 2026-04-28 13:27 | -34.29251 | -71.51401 | 36048 ft | 523 kts | 15° |
| 2026-04-28 13:27 | -34.25707 | -71.50423 | 36152 ft | 524 kts | 15° |
| 2026-04-28 13:28 | -34.18592 | -71.48461 | 36147 ft | 524 kts | 15° |
| 2026-04-28 13:28 | -34.11484 | -71.46502 | 36160 ft | 523 kts | 15° |
| 2026-04-28 13:29 | -34.04383 | -71.44546 | 36157 ft | 522 kts | 15° |
| 2026-04-28 13:29 | -33.97302 | -71.42599 | 36140 ft | 522 kts | 15° |
| 2026-04-28 13:30 | -33.90224 | -71.40657 | 36142 ft | 521 kts | 15° |
| 2026-04-28 13:30 | -33.83196 | -71.38733 | 36140 ft | 521 kts | 15° |
| 2026-04-28 13:31 | -33.72568 | -71.35829 | 36140 ft | 522 kts | 15° |
| 2026-04-28 13:31 | -33.65477 | -71.33895 | 36134 ft | 522 kts | 15° |
| 2026-04-28 13:32 | -33.59571 | -71.32287 | 36146 ft | 523 kts | 15° |
| 2026-04-28 13:32 | -33.52452 | -71.30351 | 36140 ft | 525 kts | 15° |
| 2026-04-28 13:33 | -33.45337 | -71.28420 | 36145 ft | 524 kts | 15° |
| 2026-04-28 13:33 | -33.38224 | -71.26492 | 36128 ft | 525 kts | 15° |
| 2026-04-28 13:34 | -33.31122 | -71.24571 | 36129 ft | 525 kts | 15° |
| 2026-04-28 13:34 | -33.24012 | -71.22651 | 36133 ft | 524 kts | 15° |
| 2026-04-28 13:35 | -33.16912 | -71.20737 | 36136 ft | 522 kts | 15° |
| 2026-04-28 13:35 | -33.09820 | -71.18828 | 36134 ft | 520 kts | 15° |
| 2026-04-28 13:36 | -33.02762 | -71.16931 | 36138 ft | 519 kts | 15° |
| 2026-04-28 13:36 | -32.95697 | -71.15035 | 36134 ft | 521 kts | 15° |
| 2026-04-28 13:37 | -32.88644 | -71.13144 | 36129 ft | 523 kts | 15° |
| 2026-04-28 13:37 | -32.81514 | -71.11237 | 36129 ft | 525 kts | 15° |
| 2026-04-28 13:38 | -32.74371 | -71.09330 | 36113 ft | 526 kts | 14° |
| 2026-04-28 13:38 | -32.67232 | -71.07430 | 36116 ft | 525 kts | 15° |
| 2026-04-28 13:39 | -32.60108 | -71.05533 | 36099 ft | 524 kts | 15° |
| 2026-04-28 13:39 | -32.52988 | -71.03642 | 36010 ft | 523 kts | 14° |
| 2026-04-28 13:40 | -32.49496 | -71.02717 | 36127 ft | 519 kts | 14° |
| 2026-04-28 13:40 | -32.45959 | -71.01779 | 36108 ft | 522 kts | 15° |
| 2026-04-28 13:40 | -32.38843 | -70.99892 | 36111 ft | 524 kts | 14° |
| 2026-04-28 13:41 | -32.31711 | -70.98006 | 36110 ft | 525 kts | 14° |
| 2026-04-28 13:41 | -32.24599 | -70.96129 | 36120 ft | 523 kts | 14° |
| 2026-04-28 13:42 | -32.21039 | -70.95190 | 36422 ft | 519 kts | 11° |
| 2026-04-28 13:42 | -32.17574 | -70.94276 | 36244 ft | 501 kts | 12° |
| 2026-04-28 13:42 | -32.14238 | -70.93398 | 36112 ft | 481 kts | 12° |
| 2026-04-28 13:42 | -32.11026 | -70.92553 | 36032 ft | 465 kts | 12° |
| 2026-04-28 13:43 | -32.07928 | -70.91739 | 35996 ft | 448 kts | 12° |
| 2026-04-28 13:43 | -32.04920 | -70.90949 | 35982 ft | 439 kts | 12° |
| 2026-04-28 13:43 | -31.98960 | -70.89385 | 36011 ft | 444 kts | 12° |
| 2026-04-28 13:44 | -31.92881 | -70.87791 | 36010 ft | 450 kts | 12° |
| 2026-04-28 13:44 | -31.86735 | -70.86183 | 36010 ft | 455 kts | 12° |
| 2026-04-28 13:45 | -31.80501 | -70.84555 | 36010 ft | 460 kts | 12° |
| 2026-04-28 13:45 | -31.74234 | -70.82920 | 36002 ft | 463 kts | 12° |
| 2026-04-28 13:46 | -31.67964 | -70.81286 | 36006 ft | 465 kts | 12° |
| 2026-04-28 13:46 | -31.61637 | -70.79639 | 36001 ft | 465 kts | 12° |
| 2026-04-28 13:47 | -31.55326 | -70.77998 | 36002 ft | 464 kts | 12° |
| 2026-04-28 13:47 | -31.49028 | -70.76364 | 36001 ft | 463 kts | 12° |
| 2026-04-28 13:48 | -31.42749 | -70.74736 | 36002 ft | 461 kts | 12° |
| 2026-04-28 13:48 | -31.36491 | -70.73116 | 35992 ft | 459 kts | 12° |
| 2026-04-28 13:49 | -31.30253 | -70.71503 | 35999 ft | 458 kts | 12° |
| 2026-04-28 13:49 | -31.24075 | -70.69909 | 36001 ft | 457 kts | 12° |
| 2026-04-28 13:50 | -31.17870 | -70.68311 | 36002 ft | 456 kts | 12° |
| 2026-04-28 13:50 | -31.11662 | -70.66713 | 36001 ft | 456 kts | 12° |
| 2026-04-28 13:51 | -31.05455 | -70.65117 | 36004 ft | 457 kts | 12° |
| 2026-04-28 13:51 | -30.99238 | -70.63520 | 36006 ft | 458 kts | 12° |
| 2026-04-28 13:52 | -30.92989 | -70.61918 | 36002 ft | 459 kts | 12° |
| 2026-04-28 13:52 | -30.86781 | -70.60328 | 36002 ft | 460 kts | 12° |
| 2026-04-28 13:53 | -30.80512 | -70.58725 | 36003 ft | 461 kts | 12° |
| 2026-04-28 13:53 | -30.74242 | -70.57123 | 36001 ft | 461 kts | 12° |
| 2026-04-28 13:54 | -30.67951 | -70.55518 | 36001 ft | 462 kts | 12° |
| 2026-04-28 13:54 | -30.61680 | -70.53922 | 36003 ft | 461 kts | 12° |
| 2026-04-28 13:55 | -30.55442 | -70.52336 | 36002 ft | 461 kts | 12° |
| 2026-04-28 13:55 | -30.49171 | -70.50744 | 35998 ft | 461 kts | 12° |
| 2026-04-28 13:56 | -30.42911 | -70.49156 | 36000 ft | 460 kts | 12° |
| 2026-04-28 13:56 | -30.36655 | -70.47571 | 36000 ft | 460 kts | 12° |
| 2026-04-28 13:57 | -30.30442 | -70.45999 | 35999 ft | 459 kts | 12° |
| 2026-04-28 13:57 | -30.24201 | -70.44421 | 36002 ft | 459 kts | 12° |
| 2026-04-28 13:58 | -30.17967 | -70.42848 | 35998 ft | 459 kts | 12° |
| 2026-04-28 13:58 | -30.11720 | -70.41274 | 36005 ft | 458 kts | 12° |
| 2026-04-28 13:59 | -30.05483 | -70.39704 | 36003 ft | 458 kts | 12° |
| 2026-04-28 13:59 | -29.99281 | -70.38144 | 36003 ft | 459 kts | 12° |
| 2026-04-28 14:00 | -29.93036 | -70.36576 | 36000 ft | 459 kts | 12° |
| 2026-04-28 14:00 | -29.86794 | -70.35011 | 35996 ft | 459 kts | 12° |
| 2026-04-28 14:01 | -29.80543 | -70.33446 | 36004 ft | 459 kts | 12° |
| 2026-04-28 14:01 | -29.74318 | -70.31889 | 36001 ft | 460 kts | 12° |
| 2026-04-28 14:02 | -29.68059 | -70.30326 | 36000 ft | 460 kts | 12° |
| 2026-04-28 14:02 | -29.61795 | -70.28763 | 36000 ft | 460 kts | 12° |
| 2026-04-28 14:03 | -29.55539 | -70.27204 | 36002 ft | 460 kts | 12° |
| 2026-04-28 14:03 | -29.49289 | -70.25649 | 35999 ft | 460 kts | 12° |
| 2026-04-28 14:04 | -29.43063 | -70.24102 | 36001 ft | 460 kts | 12° |
| 2026-04-28 14:04 | -29.36804 | -70.22548 | 36001 ft | 460 kts | 12° |
| 2026-04-28 14:05 | -29.30547 | -70.20997 | 36003 ft | 460 kts | 12° |
| 2026-04-28 14:05 | -29.24274 | -70.19444 | 36002 ft | 460 kts | 12° |
| 2026-04-28 14:06 | -29.18009 | -70.17894 | 35995 ft | 460 kts | 12° |
| 2026-04-28 14:06 | -29.11796 | -70.16360 | 36002 ft | 460 kts | 12° |
| 2026-04-28 14:07 | -29.05530 | -70.14814 | 35994 ft | 459 kts | 12° |
| 2026-04-28 14:07 | -28.99282 | -70.13275 | 36004 ft | 459 kts | 12° |
| 2026-04-28 14:08 | -28.93077 | -70.11748 | 36000 ft | 459 kts | 12° |
| 2026-04-28 14:08 | -28.86823 | -70.10211 | 36004 ft | 459 kts | 12° |
| 2026-04-28 14:09 | -28.80575 | -70.08677 | 36001 ft | 459 kts | 12° |
| 2026-04-28 14:09 | -28.74325 | -70.07145 | 36001 ft | 459 kts | 12° |
| 2026-04-28 14:10 | -28.68073 | -70.05614 | 35997 ft | 459 kts | 12° |
| 2026-04-28 14:10 | -28.61860 | -70.04094 | 36000 ft | 460 kts | 12° |
| 2026-04-28 14:11 | -28.55605 | -70.02566 | 36001 ft | 460 kts | 12° |
| 2026-04-28 14:11 | -28.49366 | -70.01043 | 36004 ft | 460 kts | 12° |
| 2026-04-28 14:12 | -28.43112 | -69.99520 | 35998 ft | 460 kts | 12° |
| 2026-04-28 14:12 | -28.36845 | -69.97996 | 35996 ft | 460 kts | 12° |
| 2026-04-28 14:13 | -28.30592 | -69.96475 | 35631 ft | 462 kts | 10° |
| 2026-04-28 14:13 | -28.27453 | -69.95713 | 35828 ft | 459 kts | 9° |
| 2026-04-28 14:13 | -28.24368 | -69.94964 | 35980 ft | 459 kts | 9° |
| 2026-04-28 14:14 | -28.18123 | -69.93448 | 36154 ft | 458 kts | 9° |
| 2026-04-28 14:14 | -28.11832 | -69.91928 | 36221 ft | 464 kts | 9° |
| 2026-04-28 14:15 | -28.05440 | -69.90385 | 36165 ft | 473 kts | 9° |
| 2026-04-28 14:15 | -27.98985 | -69.88825 | 36154 ft | 480 kts | 9° |
| 2026-04-28 14:16 | -27.92410 | -69.87238 | 36148 ft | 487 kts | 9° |
| 2026-04-28 14:16 | -27.85741 | -69.85630 | 36155 ft | 493 kts | 9° |
| 2026-04-28 14:17 | -27.78987 | -69.84003 | 36100 ft | 495 kts | 9° |
| 2026-04-28 14:17 | -27.72261 | -69.82384 | 36146 ft | 494 kts | 9° |
| 2026-04-28 14:18 | -27.65529 | -69.80768 | 36132 ft | 494 kts | 9° |
| 2026-04-28 14:18 | -27.58861 | -69.79168 | 36134 ft | 493 kts | 9° |
| 2026-04-28 14:19 | -27.52148 | -69.77559 | 36136 ft | 492 kts | 9° |
| 2026-04-28 14:19 | -27.45480 | -69.75768 | 36144 ft | 492 kts | 11° |
| 2026-04-28 14:20 | -27.38847 | -69.73828 | 36148 ft | 490 kts | 11° |
| 2026-04-28 14:20 | -27.32263 | -69.71915 | 36136 ft | 489 kts | 11° |
| 2026-04-28 14:21 | -27.25678 | -69.70037 | 36120 ft | 486 kts | 10° |
| 2026-04-28 14:21 | -27.19180 | -69.68197 | 36139 ft | 482 kts | 10° |
| 2026-04-28 14:22 | -27.12683 | -69.66362 | 36140 ft | 480 kts | 10° |
| 2026-04-28 14:22 | -27.07297 | -69.64843 | 36142 ft | 480 kts | 9° |
| 2026-04-28 14:23 | -27.00822 | -69.63017 | 36158 ft | 479 kts | 9° |
| 2026-04-28 14:23 | -26.94350 | -69.61193 | 36153 ft | 479 kts | 9° |
| 2026-04-28 14:24 | -26.87886 | -69.59373 | 36162 ft | 478 kts | 9° |
| 2026-04-28 14:24 | -26.81443 | -69.57561 | 36167 ft | 477 kts | 9° |
| 2026-04-28 14:25 | -26.74998 | -69.55752 | 36161 ft | 478 kts | 8° |
| 2026-04-28 14:25 | -26.68554 | -69.53945 | 36179 ft | 478 kts | 8° |
| 2026-04-28 14:26 | -26.62103 | -69.52138 | 36177 ft | 478 kts | 8° |
| 2026-04-28 14:26 | -26.55647 | -69.50331 | 36184 ft | 477 kts | 8° |
| 2026-04-28 14:27 | -26.49252 | -69.48543 | 36190 ft | 476 kts | 7° |
| 2026-04-28 14:27 | -26.42812 | -69.46745 | 36196 ft | 476 kts | 7° |
| 2026-04-28 14:28 | -26.36382 | -69.44953 | 36192 ft | 476 kts | 7° |
| 2026-04-28 14:28 | -26.29956 | -69.43164 | 36197 ft | 475 kts | 7° |
| 2026-04-28 14:29 | -26.23567 | -69.41385 | 36201 ft | 475 kts | 7° |
| 2026-04-28 14:29 | -26.17152 | -69.39602 | 36198 ft | 475 kts | 7° |
| 2026-04-28 14:30 | -26.10731 | -69.37819 | 36196 ft | 474 kts | 7° |
| 2026-04-28 14:30 | -26.04340 | -69.36045 | 36208 ft | 472 kts | 6° |
| 2026-04-28 14:31 | -25.97959 | -69.34279 | 36197 ft | 472 kts | 6° |
| 2026-04-28 14:31 | -25.91635 | -69.32529 | 36198 ft | 470 kts | 6° |
| 2026-04-28 14:32 | -25.85289 | -69.30775 | 36197 ft | 469 kts | 6° |
| 2026-04-28 14:32 | -25.78961 | -69.29029 | 36210 ft | 468 kts | 6° |
| 2026-04-28 14:33 | -25.72651 | -69.27289 | 36201 ft | 468 kts | 5° |
| 2026-04-28 14:33 | -25.66343 | -69.25551 | 36221 ft | 467 kts | 5° |
| 2026-04-28 14:34 | -25.56868 | -69.23003 | 36221 ft | 463 kts | 2° |
| 2026-04-28 14:35 | -25.50589 | -69.21845 | 36233 ft | 459 kts | 359° |
| 2026-04-28 14:35 | -25.44257 | -69.20808 | 36233 ft | 459 kts | 359° |
| 2026-04-28 14:36 | -25.37930 | -69.19741 | 36238 ft | 459 kts | 359° |
| 2026-04-28 14:36 | -25.31621 | -69.18643 | 36241 ft | 460 kts | 359° |
| 2026-04-28 14:37 | -25.25284 | -69.17533 | 36226 ft | 461 kts | 360° |
| 2026-04-28 14:37 | -25.18987 | -69.16430 | 36237 ft | 460 kts | 359° |
| 2026-04-28 14:38 | -25.12665 | -69.15326 | 36240 ft | 460 kts | 359° |
| 2026-04-28 14:38 | -25.06353 | -69.14226 | 36233 ft | 459 kts | 359° |
| 2026-04-28 14:39 | -25.00065 | -69.13130 | 36233 ft | 458 kts | 359° |
| 2026-04-28 14:39 | -24.93758 | -69.12033 | 36223 ft | 459 kts | 358° |
| 2026-04-28 14:40 | -24.87452 | -69.10937 | 36229 ft | 459 kts | 358° |
| 2026-04-28 14:40 | -24.81186 | -69.09848 | 36205 ft | 459 kts | 358° |
| 2026-04-28 14:41 | -24.74875 | -69.08745 | 36209 ft | 458 kts | 358° |
| 2026-04-28 14:41 | -24.68587 | -69.07624 | 36211 ft | 458 kts | 359° |
| 2026-04-28 14:42 | -24.62278 | -69.06498 | 36203 ft | 459 kts | 358° |
| 2026-04-28 14:42 | -24.55981 | -69.05377 | 36200 ft | 461 kts | 359° |
| 2026-04-28 14:43 | -24.49680 | -69.04258 | 36190 ft | 462 kts | 359° |
| 2026-04-28 14:43 | -24.43315 | -69.03128 | 36183 ft | 463 kts | 359° |
| 2026-04-28 14:44 | -24.36923 | -69.01994 | 36185 ft | 464 kts | 359° |
| 2026-04-28 14:44 | -24.30548 | -69.00861 | 36176 ft | 464 kts | 359° |
| 2026-04-28 14:45 | -24.24171 | -68.99734 | 36162 ft | 464 kts | 359° |
| 2026-04-28 14:45 | -24.17849 | -68.98615 | 36157 ft | 462 kts | 358° |
| 2026-04-28 14:46 | -24.11522 | -68.97498 | 36151 ft | 461 kts | 358° |
| 2026-04-28 14:46 | -24.05189 | -68.96381 | 36138 ft | 460 kts | 359° |
| 2026-04-28 14:47 | -23.98869 | -68.95267 | 36135 ft | 459 kts | 359° |
| 2026-04-28 14:47 | -23.92559 | -68.94157 | 36125 ft | 459 kts | 358° |
| 2026-04-28 14:48 | -23.86253 | -68.93048 | 36126 ft | 458 kts | 358° |
| 2026-04-28 14:48 | -23.79961 | -68.91942 | 36123 ft | 458 kts | 359° |
| 2026-04-28 14:48 | -23.76817 | -68.91396 | 35511 ft | 469 kts | 359° |
| 2026-04-28 14:49 | -23.73589 | -68.90835 | 34835 ft | 470 kts | 359° |
| 2026-04-28 14:49 | -23.70347 | -68.90265 | 34068 ft | 472 kts | 359° |
| 2026-04-28 14:49 | -23.67096 | -68.89693 | 33277 ft | 472 kts | 359° |
| 2026-04-28 14:49 | -23.63877 | -68.89122 | 32716 ft | 467 kts | 359° |
| 2026-04-28 14:50 | -23.60673 | -68.88556 | 32137 ft | 462 kts | 359° |
| 2026-04-28 14:50 | -23.57503 | -68.87998 | 31577 ft | 458 kts | 359° |
| 2026-04-28 14:50 | -23.54375 | -68.87450 | 31025 ft | 454 kts | 359° |
| 2026-04-28 14:50 | -23.51309 | -68.86940 | 30733 ft | 438 kts | 355° |
| 2026-04-28 14:51 | -23.48425 | -68.86817 | 31270 ft | 400 kts | 351° |
| 2026-04-28 14:51 | -23.45622 | -68.86413 | 30578 ft | 418 kts | 3° |
| 2026-04-28 14:51 | -23.42731 | -68.85637 | 29281 ft | 437 kts | 4° |
| 2026-04-28 14:51 | -23.39738 | -68.84928 | 28348 ft | 440 kts | 2° |
| 2026-04-28 14:52 | -23.36748 | -68.84498 | 27790 ft | 426 kts | 353° |
| 2026-04-28 14:52 | -23.33838 | -68.84657 | 27115 ft | 415 kts | 344° |
| 2026-04-28 14:52 | -23.31044 | -68.85342 | 26407 ft | 406 kts | 335° |
| 2026-04-28 14:52 | -23.28351 | -68.86247 | 25813 ft | 405 kts | 335° |
| 2026-04-28 14:53 | -23.25661 | -68.87132 | 25288 ft | 402 kts | 336° |
| 2026-04-28 14:53 | -23.22983 | -68.87999 | 24757 ft | 400 kts | 336° |
| 2026-04-28 14:53 | -23.20313 | -68.88853 | 24234 ft | 399 kts | 336° |
| 2026-04-28 14:53 | -23.17656 | -68.89700 | 23712 ft | 397 kts | 337° |
| 2026-04-28 14:54 | -23.15041 | -68.90531 | 23124 ft | 396 kts | 337° |
| 2026-04-28 14:54 | -23.12406 | -68.91367 | 22588 ft | 393 kts | 337° |
| 2026-04-28 14:54 | -23.09798 | -68.92195 | 22067 ft | 389 kts | 337° |
| 2026-04-28 14:54 | -23.07210 | -68.93016 | 21565 ft | 386 kts | 337° |
| 2026-04-28 14:55 | -23.04641 | -68.93831 | 21073 ft | 382 kts | 338° |
| 2026-04-28 14:55 | -23.02098 | -68.94638 | 20589 ft | 379 kts | 338° |
| 2026-04-28 14:55 | -22.99578 | -68.95437 | 20106 ft | 377 kts | 338° |
| 2026-04-28 14:55 | -22.97137 | -68.96368 | 19587 ft | 369 kts | 327° |
| 2026-04-28 14:56 | -22.94920 | -68.97751 | 19036 ft | 366 kts | 323° |
| 2026-04-28 14:56 | -22.92759 | -68.99204 | 18536 ft | 365 kts | 323° |
| 2026-04-28 14:56 | -22.90609 | -69.00664 | 18040 ft | 362 kts | 323° |
| 2026-04-28 14:56 | -22.88526 | -69.02063 | 17892 ft | 350 kts | 323° |
| 2026-04-28 14:57 | -22.86485 | -69.03420 | 17719 ft | 339 kts | 323° |
| 2026-04-28 14:57 | -22.85135 | -69.04312 | 17511 ft | 335 kts | 324° |
| 2026-04-28 14:57 | -22.82502 | -69.06046 | 17086 ft | 327 kts | 324° |
| 2026-04-28 14:57 | -22.80573 | -69.07310 | 16554 ft | 330 kts | 324° |
| 2026-04-28 14:58 | -22.78617 | -69.08594 | 16084 ft | 327 kts | 325° |
| 2026-04-28 14:58 | -22.76686 | -69.09857 | 15677 ft | 320 kts | 325° |
| 2026-04-28 14:58 | -22.74807 | -69.11084 | 15283 ft | 311 kts | 325° |
| 2026-04-28 14:58 | -22.72976 | -69.12280 | 14920 ft | 303 kts | 326° |
| 2026-04-28 14:59 | -22.71189 | -69.13448 | 14563 ft | 295 kts | 326° |
| 2026-04-28 14:59 | -22.69453 | -69.14583 | 14224 ft | 288 kts | 326° |
| 2026-04-28 14:59 | -22.67754 | -69.15692 | 13886 ft | 282 kts | 326° |
| 2026-04-28 14:59 | -22.66093 | -69.16776 | 13531 ft | 276 kts | 327° |
| 2026-04-28 15:00 | -22.64469 | -69.17835 | 13186 ft | 269 kts | 327° |
| 2026-04-28 15:00 | -22.62871 | -69.18845 | 12845 ft | 263 kts | 334° |
| 2026-04-28 15:00 | -22.61114 | -69.19269 | 12635 ft | 254 kts | 357° |
| 2026-04-28 15:00 | -22.59397 | -69.19195 | 12404 ft | 246 kts | 2° |
| 2026-04-28 15:01 | -22.57737 | -69.19034 | 12204 ft | 233 kts | 2° |
| 2026-04-28 15:01 | -22.56154 | -69.18886 | 11948 ft | 222 kts | 2° |
| 2026-04-28 15:01 | -22.54637 | -69.18753 | 11692 ft | 215 kts | 2° |
| 2026-04-28 15:01 | -22.53172 | -69.18631 | 11460 ft | 206 kts | 2° |
| 2026-04-28 15:02 | -22.51808 | -69.18519 | 11370 ft | 190 kts | 2° |
| 2026-04-28 15:02 | -22.50450 | -69.18411 | 11318 ft | 196 kts | 1° |
| 2026-04-28 15:02 | -22.49171 | -69.18014 | 11204 ft | 191 kts | 34° |
| 2026-04-28 15:02 | -22.48394 | -69.16901 | 10927 ft | 187 kts | 70° |
| 2026-04-28 15:03 | -22.48251 | -69.15532 | 10523 ft | 187 kts | 90° |
| 2026-04-28 15:03 | -22.48341 | -69.14042 | 10282 ft | 212 kts | 92° |
| 2026-04-28 15:03 | -22.48461 | -69.12458 | 10294 ft | 208 kts | 93° |
| 2026-04-28 15:03 | -22.48575 | -69.10966 | 10188 ft | 190 kts | 93° |
| 2026-04-28 15:04 | -22.48676 | -69.09622 | 9954 ft | 172 kts | 92° |
| 2026-04-28 15:04 | -22.48767 | -69.08346 | 9456 ft | 170 kts | 92° |
| 2026-04-28 15:04 | -22.48856 | -69.07069 | 8931 ft | 169 kts | 92° |
| 2026-04-28 15:04 | -22.48947 | -69.05802 | 8414 ft | 169 kts | 93° |
| 2026-04-28 15:05 | -22.49034 | -69.04550 | 8139 ft | 161 kts | 91° |
| 2026-04-28 15:05 | -22.49062 | -69.03348 | 7851 ft | 166 kts | 89° |
| 2026-04-28 15:05 | -22.49078 | -69.02052 | 7902 ft | 173 kts | 91° |
| 2026-04-28 15:05 | -22.49141 | -69.00797 | 7970 ft | 163 kts | 94° |
| 2026-04-28 15:06 | -22.49281 | -68.99573 | 8043 ft | 163 kts | 98° |
| 2026-04-28 15:06 | -22.49434 | -68.98370 | 8036 ft | 163 kts | 96° |
| 2026-04-28 15:06 | -22.49524 | -68.97143 | 8002 ft | 160 kts | 93° |
| 2026-04-28 15:06 | -22.49580 | -68.95926 | 7967 ft | 163 kts | 93° |
| 2026-04-28 15:07 | -22.49667 | -68.94720 | 7949 ft | 162 kts | 95° |
| 2026-04-28 15:07 | -22.49783 | -68.93510 | 7805 ft | 163 kts | 95° |
| 2026-04-28 15:07 | -22.49866 | -68.92294 | 7538 ft | 160 kts | 95° |
| 2026-04-28 15:07 | -22.49952 | -68.91142 | 7469 ft | 141 kts | 95° |
| 2026-04-28 15:08 | -22.50016 | -68.90250 | 7538 ft | 95 kts | 94° |
| 2026-04-28 15:08 | -22.50032 | -68.89997 | 7555 ft | 2 kts | 94° |
| 2026-04-28 15:08 | -22.50033 | -68.89980 | 7556 ft | 2 kts | 94° |
| 2026-04-28 15:08 | -22.50037 | -68.89914 | 7560 ft | 16 kts | 94° |
| 2026-04-28 15:09 | -22.50039 | -68.89759 | 7573 ft | 22 kts | 81° |
| 2026-04-28 15:09 | -22.49996 | -68.89627 | 7583 ft | 12 kts | 64° |
| 2026-04-28 15:09 | -22.49959 | -68.89544 | 7586 ft | 12 kts | 64° |
| 2026-04-28 15:09 | -22.49937 | -68.89499 | 7588 ft | 8 kts | 53° |
| 2026-04-28 15:10 | -22.49896 | -68.89518 | 7586 ft | 6 kts | 278° |
| 2026-04-28 15:10 | -22.49890 | -68.89583 | 7582 ft | 12 kts | 275° |
| 2026-04-28 15:10 | -22.49886 | -68.89653 | 7578 ft | 16 kts | 273° |
| 2026-04-28 15:10 | -22.49873 | -68.89828 | 7568 ft | 19 kts | 276° |
| 2026-04-28 15:11 | -22.49864 | -68.89976 | 7558 ft | 21 kts | 273° |
| 2026-04-28 15:11 | -22.49856 | -68.90088 | 7548 ft | 24 kts | 275° |
| 2026-04-28 15:11 | -22.49838 | -68.90345 | 7529 ft | 28 kts | 274° |
| 2026-04-28 15:11 | -22.49827 | -68.90491 | 7517 ft | 28 kts | 274° |
| 2026-04-28 15:12 | -22.49815 | -68.90689 | 7486 ft | 21 kts | 274° |
| 2026-04-28 15:12 | -22.49810 | -68.90768 | 7492 ft | 7 kts | 283° |
| 2026-04-28 15:12 | -22.49793 | -68.90784 | 7486 ft | 1 kts | 355° |
| 2026-04-28 15:12 | -22.49777 | -68.90781 | 7483 ft | 5 kts | 9° |
| 2026-04-28 15:13 | -22.49741 | -68.90776 | 7479 ft | 5 kts | 5° |
| 2026-04-28 15:13 | -22.49705 | -68.90773 | 7482 ft | 5 kts | 4° |
| 2026-04-28 15:13 | -22.49671 | -68.90775 | 7484 ft | 5 kts | 338° |
| 2026-04-28 15:13 | -22.49648 | -68.90799 | 7497 ft | 4 kts | 348° |
| 2026-04-28 15:14 | -22.49618 | -68.90798 | 7489 ft | 3 kts | 3° |
| 2026-04-28 15:14 | -22.49598 | -68.90797 | 7480 ft | 2 kts | 3° |
| 2026-04-28 15:14 | -22.49595 | -68.90796 | 7481 ft | 0 kts | 3° |